createdAt,value
2023-05-09T00:00:00.547Z,43.1
2023-05-09T00:05:00.591Z,43.7
2023-05-09T00:10:00.554Z,43.6
2023-05-09T00:15:00.599Z,43.8
2023-05-09T00:20:00.586Z,44.1
2023-05-09T00:25:00.606Z,43.7
2023-05-09T00:30:00.552Z,44.0
2023-05-09T00:35:00.586Z,44.2
2023-05-09T00:40:00.627Z,44.1
2023-05-09T00:45:00.595Z,44.6
2023-05-09T00:50:00.547Z,44.5
2023-05-09T00:55:00.616Z,44.9
2023-05-09T01:00:00.566Z,44.9
2023-05-09T01:05:00.588Z,45.0
2023-05-09T01:10:00.568Z,45.3
2023-05-09T01:15:00.596Z,45.3
2023-05-09T01:20:00.545Z,45.5
2023-05-09T01:25:00.615Z,45.8
2023-05-09T01:30:00.585Z,46.2
2023-05-09T01:35:00.596Z,46.4
2023-05-09T01:40:00.537Z,46.5
2023-05-09T01:45:00.581Z,47.0
2023-05-09T01:50:00.565Z,47.2
2023-05-09T01:55:00.575Z,47.5
2023-05-09T02:00:00.546Z,47.9
2023-05-09T02:05:00.586Z,47.9
2023-05-09T02:10:00.562Z,48.1
2023-05-09T02:15:00.624Z,48.3
2023-05-09T02:20:00.574Z,48.2
2023-05-09T02:25:00.611Z,48.6
2023-05-09T02:30:00.535Z,48.7
2023-05-09T02:35:00.577Z,49.2
2023-05-09T02:40:00.588Z,49.3
2023-05-09T02:45:08.158Z,49.9
2023-05-09T02:50:00.536Z,50.0
2023-05-09T02:55:00.578Z,50.0
2023-05-09T03:00:00.571Z,50.3
2023-05-09T03:05:00.561Z,50.1
2023-05-09T03:10:00.537Z,50.8
2023-05-09T03:15:00.600Z,51.4
2023-05-09T03:20:03.947Z,51.5
2023-05-09T03:25:00.588Z,51.7
2023-05-09T03:30:00.617Z,52.0
2023-05-09T03:35:00.647Z,52.5
2023-05-09T03:40:00.566Z,52.7
2023-05-09T03:45:00.641Z,52.2
2023-05-09T03:50:00.556Z,52.7
2023-05-09T03:55:00.602Z,53.5
2023-05-09T04:00:00.548Z,53.5
2023-05-09T04:05:00.592Z,53.9
2023-05-09T04:10:00.619Z,53.5
2023-05-09T04:15:00.602Z,54.1
2023-05-09T04:20:00.585Z,54.6
2023-05-09T04:25:00.596Z,55.4
2023-05-09T04:30:00.708Z,54.7
2023-05-09T04:35:00.652Z,55.0
2023-05-09T04:40:00.551Z,55.0
2023-05-09T04:45:00.588Z,55.0
2023-05-09T04:50:00.552Z,55.9
2023-05-09T04:55:00.615Z,55.9
2023-05-09T05:00:00.890Z,55.8
2023-05-09T05:05:10.830Z,55.8
2023-05-09T05:10:00.573Z,56.2
2023-05-09T05:15:00.617Z,56.2
2023-05-09T05:20:00.618Z,56.5
2023-05-09T05:25:00.566Z,56.7
2023-05-09T05:30:00.641Z,56.5
2023-05-09T05:35:00.584Z,56.9
2023-05-09T05:40:00.583Z,57.4
2023-05-09T05:45:00.553Z,57.3
2023-05-09T05:50:00.589Z,57.8
2023-05-09T05:55:00.552Z,57.9
2023-05-09T06:00:00.593Z,57.5
2023-05-09T06:05:00.596Z,57.7
2023-05-09T06:10:00.645Z,57.6
2023-05-09T06:15:00.564Z,57.7
2023-05-09T06:20:00.608Z,57.3
2023-05-09T06:25:00.603Z,57.8
2023-05-09T06:30:04.163Z,57.9
2023-05-09T06:35:00.551Z,57.6
2023-05-09T06:40:00.583Z,57.1
2023-05-09T06:45:00.623Z,56.7
2023-05-09T06:50:00.675Z,56.0
2023-05-09T06:55:00.538Z,55.7
2023-05-09T07:00:00.701Z,55.9
2023-05-09T07:05:00.692Z,55.8
2023-05-09T07:10:10.400Z,55.1
2023-05-09T07:15:00.552Z,54.7
2023-05-09T07:20:00.624Z,54.5
2023-05-09T07:25:00.550Z,54.2
2023-05-09T07:30:00.810Z,54.0
2023-05-09T07:35:00.573Z,53.4
2023-05-09T07:40:00.626Z,53.2
2023-05-09T07:45:00.538Z,52.7
2023-05-09T07:50:00.625Z,52.5
2023-05-09T07:55:00.555Z,52.4
2023-05-09T08:00:00.599Z,51.7
2023-05-09T08:05:00.586Z,51.3
2023-05-09T08:10:00.623Z,50.5
2023-05-09T08:15:00.575Z,48.9
2023-05-09T08:20:00.642Z,48.0
2023-05-09T08:25:00.591Z,46.6
2023-05-09T08:30:00.545Z,46.3
2023-05-09T08:35:00.630Z,45.9
2023-05-09T08:40:00.581Z,45.1
2023-05-09T08:45:00.593Z,45.1
2023-05-09T08:50:00.587Z,44.2
2023-05-09T08:55:00.618Z,43.7
2023-05-09T09:00:00.539Z,42.8
2023-05-09T09:05:00.639Z,42.1
2023-05-09T09:10:00.594Z,42.3
2023-05-09T09:15:00.591Z,40.8
2023-05-09T09:20:00.631Z,40.2
2023-05-09T09:25:00.632Z,39.3
2023-05-09T09:30:00.572Z,38.9
2023-05-09T09:35:00.598Z,44.5
2023-05-09T09:40:00.559Z,39.9
2023-05-09T09:45:00.606Z,38.3
2023-05-09T09:50:00.586Z,38.2
2023-05-09T09:55:00.604Z,35.2
2023-05-09T10:00:00.575Z,34.9
2023-05-09T10:05:00.590Z,34.7
2023-05-09T10:10:00.602Z,35.0
2023-05-09T10:15:00.598Z,34.5
2023-05-09T10:20:00.552Z,34.2
2023-05-09T10:25:00.596Z,33.5
2023-05-09T10:30:00.645Z,34.0
2023-05-09T10:35:00.553Z,33.2
2023-05-09T10:40:00.626Z,33.5
2023-05-09T10:45:00.588Z,33.1
2023-05-09T10:50:00.592Z,32.4
2023-05-09T10:55:00.527Z,32.5
2023-05-09T11:00:00.671Z,32.5
2023-05-09T11:05:00.573Z,32.4
2023-05-09T11:10:00.593Z,32.1
2023-05-09T11:15:00.552Z,32.1
2023-05-09T11:20:00.595Z,31.3
2023-05-09T11:25:00.562Z,31.1
2023-05-09T11:30:00.605Z,30.9
2023-05-09T11:35:00.594Z,31.2
2023-05-09T11:40:00.617Z,31.0
2023-05-09T11:45:00.555Z,30.8
2023-05-09T11:50:00.609Z,30.3
2023-05-09T11:55:00.606Z,31.5
2023-05-09T12:00:00.588Z,32.0
2023-05-09T12:05:00.546Z,30.9
2023-05-09T12:10:00.607Z,30.8
2023-05-09T12:15:00.571Z,30.6
2023-05-09T12:20:00.598Z,30.4
2023-05-09T12:25:00.544Z,31.1
2023-05-09T12:30:00.627Z,30.6
2023-05-09T12:35:00.536Z,31.5
2023-05-09T12:40:00.603Z,31.3
2023-05-09T12:45:00.580Z,30.7
2023-05-09T12:50:00.657Z,31.4
2023-05-09T12:55:00.542Z,31.7
2023-05-09T13:00:00.601Z,31.3
2023-05-09T13:05:00.594Z,31.1
2023-05-09T13:10:00.616Z,31.2
2023-05-09T13:15:00.577Z,30.9
2023-05-09T13:20:00.609Z,31.2
2023-05-09T13:25:00.586Z,31.6
2023-05-09T13:30:00.568Z,30.9
2023-05-09T13:35:00.562Z,31.0
2023-05-09T13:40:00.601Z,31.4
2023-05-09T13:45:00.553Z,31.5
2023-05-09T13:50:00.603Z,31.1
2023-05-09T13:55:00.569Z,30.6
2023-05-09T14:00:00.634Z,30.8
2023-05-09T14:05:00.555Z,31.4
2023-05-09T14:10:11.347Z,31.3
2023-05-09T14:15:00.589Z,31.5
2023-05-09T14:20:00.930Z,31.5
2023-05-09T14:25:00.544Z,31.2
2023-05-09T14:30:00.740Z,31.5
2023-05-09T14:35:00.686Z,31.6
2023-05-09T14:40:00.581Z,31.9
2023-05-09T14:45:00.549Z,31.5
2023-05-09T14:50:00.609Z,31.3
2023-05-09T14:55:00.532Z,31.1
2023-05-09T15:00:12.508Z,31.2
2023-05-09T15:05:00.577Z,31.3
2023-05-09T15:10:00.578Z,31.0
2023-05-09T15:15:00.549Z,30.8
2023-05-09T15:20:00.586Z,30.6
2023-05-09T15:25:00.552Z,30.1
2023-05-09T15:30:00.611Z,30.4
2023-05-09T15:35:00.595Z,30.2
2023-05-09T15:40:00.624Z,30.2
2023-05-09T15:45:00.589Z,29.8
2023-05-09T15:50:00.638Z,29.8
2023-05-09T15:55:00.654Z,29.9
2023-05-09T16:00:00.674Z,29.9
2023-05-09T16:05:00.587Z,29.9
2023-05-09T16:10:00.605Z,29.9
2023-05-09T16:15:00.598Z,29.8
2023-05-09T16:20:00.637Z,29.8
2023-05-09T16:25:00.650Z,29.7
2023-05-09T16:30:00.786Z,29.5
2023-05-09T16:35:00.561Z,29.4
2023-05-09T16:40:00.780Z,29.4
2023-05-09T16:45:00.602Z,29.6
2023-05-09T16:50:00.686Z,29.4
2023-05-09T16:55:00.564Z,29.4
2023-05-09T17:00:00.800Z,29.5
2023-05-09T17:05:00.609Z,29.7
2023-05-09T17:10:00.597Z,30.0
2023-05-09T17:15:00.555Z,30.0
2023-05-09T17:20:00.605Z,29.9
2023-05-09T17:25:00.606Z,29.3
2023-05-09T17:30:00.620Z,29.7
2023-05-09T17:35:00.584Z,29.8
2023-05-09T17:40:00.625Z,29.4
2023-05-09T17:45:00.561Z,29.5
2023-05-09T17:50:00.604Z,29.5
2023-05-09T17:55:00.605Z,29.7
2023-05-09T18:00:00.613Z,29.7
2023-05-09T18:05:00.605Z,29.8
2023-05-09T18:10:00.661Z,29.9
2023-05-09T18:15:00.690Z,29.7
2023-05-09T18:20:00.738Z,29.9
2023-05-09T18:25:00.642Z,29.8
2023-05-09T18:30:00.682Z,29.6
2023-05-09T18:35:00.626Z,29.8
2023-05-09T18:40:00.654Z,30.3
2023-05-09T18:45:00.636Z,30.5
2023-05-09T18:50:02.703Z,30.6
2023-05-09T18:55:00.556Z,30.6
2023-05-09T19:00:00.698Z,31.0
2023-05-09T19:05:00.651Z,31.2
2023-05-09T19:10:00.600Z,31.5
2023-05-09T19:15:00.569Z,31.6
2023-05-09T19:20:00.666Z,31.5
2023-05-09T19:25:00.586Z,31.6
2023-05-09T19:30:00.606Z,31.4
2023-05-09T19:35:00.546Z,31.4
2023-05-09T19:40:00.592Z,31.5
2023-05-09T19:45:00.560Z,31.6
2023-05-09T19:50:00.583Z,31.6
2023-05-09T19:55:00.590Z,31.8
2023-05-09T20:00:00.678Z,31.9
2023-05-09T20:05:00.550Z,32.3
2023-05-09T20:10:00.603Z,32.4
2023-05-09T20:15:00.597Z,32.3
2023-05-09T20:20:00.582Z,32.3
2023-05-09T20:25:00.553Z,32.5
2023-05-09T20:30:00.659Z,33.8
2023-05-09T20:35:00.556Z,36.1
2023-05-09T20:40:00.707Z,33.4
2023-05-09T20:45:00.575Z,33.2
2023-05-09T20:50:00.641Z,33.0
2023-05-09T20:55:00.548Z,33.3
2023-05-09T21:00:00.598Z,33.5
2023-05-09T21:05:00.600Z,34.0
2023-05-09T21:10:00.648Z,33.8
2023-05-09T21:15:00.540Z,35.5
2023-05-09T21:20:00.636Z,33.7
2023-05-09T21:25:00.571Z,34.4
2023-05-09T21:30:00.571Z,35.0
2023-05-09T21:35:00.537Z,35.0
2023-05-09T21:40:00.598Z,35.4
2023-05-09T21:45:00.577Z,35.6
2023-05-09T21:50:00.531Z,36.0
2023-05-09T21:55:00.583Z,36.2
2023-05-09T22:00:00.585Z,36.1
2023-05-09T22:05:00.578Z,36.3
2023-05-09T22:10:00.552Z,36.5
2023-05-09T22:15:00.618Z,36.9
2023-05-09T22:20:00.535Z,36.8
2023-05-09T22:25:00.589Z,37.1
2023-05-09T22:30:00.603Z,37.0
2023-05-09T22:35:00.590Z,37.2
2023-05-09T22:40:00.541Z,37.7
2023-05-09T22:45:00.575Z,38.1
2023-05-09T22:50:00.578Z,38.5
2023-05-09T22:55:00.587Z,38.8
2023-05-09T23:00:00.543Z,39.8
2023-05-09T23:05:00.588Z,39.7
2023-05-09T23:10:00.581Z,40.3
2023-05-09T23:15:00.616Z,40.5
2023-05-09T23:20:00.540Z,41.2
2023-05-09T23:30:00.585Z,41.7
2023-05-09T23:35:00.589Z,42.3
2023-05-09T23:40:00.540Z,43.1
2023-05-09T23:45:00.602Z,42.9
2023-05-09T23:50:00.587Z,43.4
2023-05-09T23:55:00.587Z,43.7
